Time;durP1;ratioP1;P1;durP2;ratioP2;P2;SDS_P1;SDS_P2;PMS_P1;PMS_P2;Temp;Humidity;BMP_temperature;BMP_pressure;BME280_temperature;BME280_humidity;BME280_pressure;Samples;Min_cycle;Max_cycle;Signal;HPM_P1;HPM_P2
2023/12/04 00:00:43;;;;;;;6.93;4.40;;;;;;;-0.13;100.00;62900.63;5053528;28;20331;-53
2023/12/04 00:03:09;;;;;;;7.53;4.40;;;;;;;-0.13;100.00;62898.16;5053487;28;20201;-52
2023/12/04 00:05:34;;;;;;;7.03;4.30;;;;;;;-0.20;100.00;62890.56;5053488;28;20220;-52
2023/12/04 00:08:00;;;;;;;7.57;4.37;;;;;;;-0.25;100.00;62882.69;5052949;28;20694;-52
2023/12/04 00:10:25;;;;;;;6.60;4.13;;;;;;;0.18;100.00;62930.63;5053476;28;20205;-53
2023/12/04 00:12:51;;;;;;;6.40;4.40;;;;;;;0.41;100.00;62953.59;5053457;28;20205;-53
2023/12/04 00:15:19;;;;;;;7.07;4.53;;;;;;;0.47;100.00;62964.50;5053388;28;20208;-54
2023/12/04 00:17:51;;;;;;;7.67;4.30;;;;;;;0.09;99.53;62921.41;5052870;28;20288;-55
2023/12/04 00:20:17;;;;;;;5.27;4.00;;;;;;;0.32;100.00;62943.31;5036313;28;20217;-53
2023/12/04 00:22:42;;;;;;;7.67;4.03;;;;;;;0.09;99.24;62920.88;5053121;28;20208;-53
2023/12/04 00:25:08;;;;;;;10.30;4.60;;;;;;;0.24;100.00;62937.13;5053020;28;20263;-50
2023/12/04 00:27:33;;;;;;;7.10;3.60;;;;;;;-0.06;98.80;62903.25;5052659;28;20213;-52
2023/12/04 00:29:59;;;;;;;7.17;4.57;;;;;;;-0.15;98.55;62895.44;5053042;28;20259;-53
2023/12/04 00:32:24;;;;;;;6.17;3.97;;;;;;;-0.24;97.36;62886.22;5052029;28;20217;-53
2023/12/04 00:34:50;;;;;;;6.33;4.10;;;;;;;-0.36;97.96;62873.25;5034892;28;20242;-51
2023/12/04 00:37:15;;;;;;;5.27;4.00;;;;;;;-0.29;98.61;62883.31;5052598;28;20201;-53
2023/12/04 00:39:41;;;;;;;8.30;3.83;;;;;;;-0.16;94.31;62894.34;5053074;28;20210;-52
2023/12/04 00:42:06;;;;;;;7.03;3.87;;;;;;;-0.17;93.26;62890.81;5052980;28;20259;-56
2023/12/04 00:44:32;;;;;;;7.13;3.83;;;;;;;-0.26;92.71;62883.53;5052352;28;20208;-50
2023/12/04 00:46:57;;;;;;;5.97;3.43;;;;;;;-0.31;93.76;62878.13;5052402;28;20205;-52
2023/12/04 00:49:24;;;;;;;5.87;3.50;;;;;;;-0.38;93.69;62870.53;5052680;28;20224;-51
2023/12/04 00:51:49;;;;;;;5.17;3.57;;;;;;;-0.56;94.21;62851.63;5034804;28;20314;-56
2023/12/04 00:54:15;;;;;;;4.37;2.90;;;;;;;-0.55;95.47;62852.72;5052476;28;20207;-52
2023/12/04 00:56:41;;;;;;;7.80;3.90;;;;;;;-0.72;96.60;62833.75;5052641;28;20221;-58
2023/12/04 00:59:10;;;;;;;7.80;4.10;;;;;;;-0.69;96.53;62837.56;5052521;28;20232;-54
2023/12/04 01:01:39;;;;;;;7.13;4.40;;;;;;;-0.56;96.75;62851.63;5034443;28;20236;-53
2023/12/04 01:04:05;;;;;;;6.50;3.90;;;;;;;-0.71;95.91;62835.41;5052344;28;20193;-51
2023/12/04 01:06:30;;;;;;;6.60;4.23;;;;;;;-0.59;95.24;62847.84;5034277;28;20257;-52
2023/12/04 01:08:56;;;;;;;4.73;3.47;;;;;;;-0.67;94.99;62837.25;5052956;28;20198;-52
2023/12/04 01:11:23;;;;;;;6.83;4.00;;;;;;;-0.58;94.79;62846.97;5052449;28;20644;-54
2023/12/04 01:13:49;;;;;;;4.83;3.20;;;;;;;-0.63;95.38;62844.06;5034559;28;20216;-53
2023/12/04 01:16:15;;;;;;;6.30;4.53;;;;;;;-0.64;95.20;62845.44;5034327;28;20581;-51
2023/12/04 01:18:41;;;;;;;5.13;3.20;;;;;;;-0.83;95.41;62822.44;5078068;22;20236;-52
2023/12/04 01:21:10;;;;;;;6.47;4.20;;;;;;;-0.70;96.24;62835.94;5071955;28;20236;-54
2023/12/04 01:23:36;;;;;;;6.67;4.57;;;;;;;-0.65;95.78;62841.88;5035266;28;20213;-53
2023/12/04 01:26:03;;;;;;;6.10;4.13;;;;;;;-0.79;95.01;62824.28;5051969;28;20230;-56
2023/12/04 01:28:29;;;;;;;7.17;4.13;;;;;;;-0.78;97.02;62825.34;5051917;28;20209;-52
2023/12/04 01:30:54;;;;;;;5.70;3.70;;;;;;;-0.77;95.43;62828.91;5052260;28;20201;-52
2023/12/04 01:33:20;;;;;;;7.03;4.30;;;;;;;-0.79;94.97;62826.75;5051936;28;20285;-53
2023/12/04 01:35:45;;;;;;;7.03;4.17;;;;;;;-0.88;95.41;62819.47;5052168;28;20270;-52
2023/12/04 01:38:11;;;;;;;5.70;3.87;;;;;;;-0.96;95.34;62805.88;5051661;28;20314;-54
2023/12/04 01:40:37;;;;;;;6.07;3.93;;;;;;;-0.96;95.15;62808.91;5051860;28;20235;-54
2023/12/04 01:43:02;;;;;;;5.03;3.70;;;;;;;-0.99;95.71;62803.19;5050999;28;20296;-53
2023/12/04 01:45:28;;;;;;;5.23;3.80;;;;;;;-0.99;96.44;62805.66;5051100;28;20650;-54
2023/12/04 01:47:53;;;;;;;7.33;3.70;;;;;;;-0.98;97.35;62803.72;5033895;28;20244;-54
2023/12/04 01:50:20;;;;;;;9.37;4.40;;;;;;;-1.00;97.63;62804.56;5051725;28;20666;-51
2023/12/04 01:52:46;;;;;;;8.00;4.53;;;;;;;-0.91;97.98;62811.81;5050565;28;20232;-52
2023/12/04 01:55:13;;;;;;;8.17;4.50;;;;;;;-0.74;95.67;62832.16;5033836;28;20555;-58
2023/12/04 01:57:38;;;;;;;8.07;4.83;;;;;;;-0.68;96.58;62838.63;5051540;28;20217;-53
2023/12/04 02:00:11;;;;;;;7.03;4.70;;;;;;;-0.82;96.99;62823.50;5051421;28;20258;-53
2023/12/04 02:02:37;;;;;;;6.63;3.93;;;;;;;-0.96;96.57;62806.44;5033402;28;20281;-52
2023/12/04 02:05:05;;;;;;;6.63;3.97;;;;;;;-0.91;97.65;62813.78;5051700;28;20284;-53
2023/12/04 02:07:31;;;;;;;6.60;4.37;;;;;;;-1.01;97.02;62800.50;5051321;28;20213;-53
2023/12/04 02:09:57;;;;;;;6.93;4.33;;;;;;;-1.08;97.96;62792.91;5049904;28;20208;-51
2023/12/04 02:12:23;;;;;;;6.83;4.13;;;;;;;-1.10;99.03;62793.22;5051507;28;20223;-51
2023/12/04 02:14:48;;;;;;;10.03;4.53;;;;;;;-1.04;100.00;62799.72;5051447;28;20200;-54
2023/12/04 02:17:16;;;;;;;6.73;4.67;;;;;;;-1.09;99.63;62794.31;5051265;28;20223;-51
2023/12/04 02:19:42;;;;;;;8.87;4.77;;;;;;;-1.15;100.00;62790.28;5051737;28;20654;-53
2023/12/04 02:22:08;;;;;;;8.07;4.33;;;;;;;-1.05;100.00;62799.16;5051001;28;20232;-54
2023/12/04 02:24:35;;;;;;;7.13;4.27;;;;;;;-1.21;99.73;62779.41;5051019;28;20746;-54
2023/12/04 02:27:17;;;;;;;6.73;4.17;;;;;;;-1.23;99.44;62776.72;5050928;28;20235;-53
2023/12/04 02:30:00;;;;;;;8.03;4.10;;;;;;;-1.25;99.60;62779.50;5051265;28;20202;-51
2023/12/04 02:32:31;;;;;;;5.40;3.93;;;;;;;-1.25;98.81;62779.50;5033072;28;20228;-51
2023/12/04 02:34:59;;;;;;;5.80;4.27;;;;;;;-1.37;98.41;62766.50;5033062;28;20241;-51
2023/12/04 02:37:27;;;;;;;4.93;3.33;;;;;;;-1.28;99.07;62773.75;5051218;28;20589;-53
2023/12/04 02:39:54;;;;;;;6.93;4.43;;;;;;;-1.02;97.65;62801.88;5051524;28;20200;-52
2023/12/04 02:42:21;;;;;;;8.77;4.27;;;;;;;-1.23;98.06;62779.19;5033407;28;20258;-51
2023/12/04 02:44:47;;;;;;;6.47;3.90;;;;;;;-1.21;97.06;62784.34;5051092;28;20177;-52
2023/12/04 02:47:12;;;;;;;7.00;4.13;;;;;;;-1.28;97.59;62774.31;5050863;28;20227;-52
2023/12/04 02:49:38;;;;;;;5.60;3.90;;;;;;;-1.33;97.55;62768.34;5050958;28;20607;-51
2023/12/04 02:52:03;;;;;;;6.47;3.57;;;;;;;-1.35;96.58;62766.72;5051017;28;20358;-51
2023/12/04 02:54:29;;;;;;;7.07;4.27;;;;;;;-1.32;97.39;62769.44;5051268;28;20208;-61
2023/12/04 02:56:54;;;;;;;6.30;4.10;;;;;;;-1.38;97.75;62762.97;5055950;28;20231;-55
2023/12/04 02:59:20;;;;;;;5.13;3.80;;;;;;;-1.32;97.87;62766.97;5057446;28;20667;-54
2023/12/04 03:01:45;;;;;;;7.37;4.20;;;;;;;-1.46;99.56;62751.84;5057255;28;20230;-52
2023/12/04 03:04:11;;;;;;;6.63;4.47;;;;;;;-1.47;99.13;62753.75;5057341;28;20571;-52
2023/12/04 03:06:38;;;;;;;5.90;4.33;;;;;;;-1.55;100.00;62745.13;5057503;28;20210;-51
2023/12/04 03:09:04;;;;;;;7.80;4.53;;;;;;;-1.55;100.00;62747.59;5057828;28;20200;-53
2023/12/04 03:11:30;;;;;;;6.47;4.07;;;;;;;-1.64;100.00;62737.34;5057568;28;20200;-52
2023/12/04 03:13:55;;;;;;;6.80;4.07;;;;;;;-1.63;100.00;62736.47;5057191;28;20191;-50
2023/12/04 03:16:21;;;;;;;7.43;4.50;;;;;;;-1.63;100.00;62736.47;5057220;28;20283;-51
2023/12/04 03:18:46;;;;;;;7.80;4.10;;;;;;;-1.67;100.00;62734.63;5056084;28;20637;-52
2023/12/04 03:21:12;;;;;;;7.87;4.37;;;;;;;-1.64;100.00;62734.88;5057340;28;20700;-52
2023/12/04 03:23:37;;;;;;;7.53;4.47;;;;;;;-1.66;100.00;62735.16;5057161;28;20205;-52
2023/12/04 03:26:03;;;;;;;6.83;3.93;;;;;;;-1.66;100.00;62733.25;5057360;28;20737;-52
2023/12/04 03:28:29;;;;;;;6.23;3.93;;;;;;;-1.60;100.00;62739.19;5057052;28;20207;-52
2023/12/04 03:30:54;;;;;;;7.70;4.70;;;;;;;-1.52;100.00;62747.84;5055560;28;20200;-52
2023/12/04 03:33:20;;;;;;;6.80;4.00;;;;;;;-1.59;99.77;62740.81;5057319;28;20216;-53
2023/12/04 03:35:46;;;;;;;11.30;4.57;;;;;;;-1.68;100.00;62728.06;5057732;28;20209;-52
2023/12/04 03:38:12;;;;;;;6.77;3.30;;;;;;;-1.71;99.97;62730.31;5038879;28;20716;-51
2023/12/04 03:40:37;;;;;;;6.60;3.90;;;;;;;-1.65;100.00;62734.31;5057302;28;20219;-51
2023/12/04 03:43:03;;;;;;;7.27;4.30;;;;;;;-1.52;100.00;62745.34;5039190;28;20322;-51
2023/12/04 03:45:28;;;;;;;7.07;4.37;;;;;;;-1.62;99.75;62737.03;5056886;28;20205;-52
2023/12/04 03:47:54;;;;;;;5.37;3.70;;;;;;;-1.74;98.65;62722.13;5057022;28;20246;-51
2023/12/04 03:50:19;;;;;;;4.23;3.30;;;;;;;-1.66;99.00;62735.16;5056866;28;20201;-52
2023/12/04 03:52:45;;;;;;;7.00;4.23;;;;;;;-1.67;98.78;62729.16;5057009;28;20212;-50
2023/12/04 03:55:11;;;;;;;4.27;3.53;;;;;;;-1.81;98.55;62719.50;5056709;28;20275;-56
2023/12/04 03:57:36;;;;;;;7.20;4.10;;;;;;;-1.86;99.09;62709.19;5038512;28;20281;-52
2023/12/04 04:00:10;;;;;;;5.30;3.73;;;;;;;-1.90;99.65;62707.31;5056680;28;20196;-54
2023/12/04 04:02:36;;;;;;;5.87;4.03;;;;;;;-1.82;99.80;62716.50;5056577;28;20243;-53
2023/12/04 04:05:01;;;;;;;6.73;4.10;;;;;;;-1.84;100.00;62714.31;5057060;28;20212;-60
2023/12/04 04:07:27;;;;;;;6.87;3.70;;;;;;;-1.79;100.00;62719.75;5053217;28;20208;-52
2023/12/04 04:09:52;;;;;;;6.40;3.70;;;;;;;-1.80;100.00;62718.66;5035397;28;20241;-58
2023/12/04 04:12:18;;;;;;;7.43;4.00;;;;;;;-1.74;99.73;62725.13;5051932;28;20216;-51
2023/12/04 04:14:43;;;;;;;6.70;3.47;;;;;;;-1.78;99.83;62720.28;5035160;28;20185;-50
2023/12/04 04:17:09;;;;;;;6.57;4.17;;;;;;;-1.75;100.00;62721.59;5053008;28;20587;-50
2023/12/04 04:19:34;;;;;;;8.60;4.63;;;;;;;-1.74;99.92;62722.66;5052925;28;20682;-50
2023/12/04 04:22:00;;;;;;;5.03;3.60;;;;;;;-1.82;99.06;62715.97;5051467;28;20241;-51
2023/12/04 04:24:25;;;;;;;8.17;3.80;;;;;;;-1.85;99.19;62712.72;5052956;28;20573;-53
2023/12/04 04:26:51;;;;;;;6.43;4.00;;;;;;;-1.85;99.30;62710.78;5051661;28;20221;-51
2023/12/04 04:29:16;;;;;;;7.87;4.30;;;;;;;-1.92;99.58;62705.69;5052889;28;20215;-55
2023/12/04 04:31:42;;;;;;;6.17;3.50;;;;;;;-1.90;98.89;62702.38;5053070;28;20212;-52
2023/12/04 04:34:07;;;;;;;5.10;3.93;;;;;;;-1.84;98.20;62714.31;5052734;28;20777;-53
2023/12/04 04:36:35;;;;;;;6.20;3.83;;;;;;;-1.95;99.28;62701.91;5053135;28;20678;-53
2023/12/04 04:39:02;;;;;;;6.27;3.97;;;;;;;-1.91;99.13;62709.25;5052651;28;20218;-54
2023/12/04 04:41:27;;;;;;;5.80;3.33;;;;;;;-1.87;98.29;62711.09;5034475;28;20226;-55
2023/12/04 04:43:53;;;;;;;5.23;3.50;;;;;;;-1.70;98.27;62726.97;5053013;28;20287;-53
2023/12/04 04:46:19;;;;;;;6.57;3.97;;;;;;;-1.51;99.42;62748.91;5034459;28;20224;-53
2023/12/04 04:48:44;;;;;;;6.47;3.60;;;;;;;-1.60;96.26;62739.19;5052265;28;20212;-52
2023/12/04 04:51:10;;;;;;;4.67;3.53;;;;;;;-1.73;95.91;62723.75;5052589;28;20297;-53
2023/12/04 04:53:35;;;;;;;5.80;3.47;;;;;;;-0.71;100.00;62835.41;5034577;28;20229;-60
2023/12/04 04:56:01;;;;;;;7.67;3.90;;;;;;;-1.40;95.48;62760.78;5052790;28;20231;-53
2023/12/04 04:58:26;;;;;;;5.83;4.17;;;;;;;-1.50;96.15;62748.06;5052499;28;20220;-52
2023/12/04 05:00:52;;;;;;;6.47;3.93;;;;;;;-1.62;94.90;62735.09;5052275;28;20216;-52
2023/12/04 05:03:17;;;;;;;4.87;3.57;;;;;;;-1.76;94.49;62722.97;5052300;28;20744;-52
2023/12/04 05:05:43;;;;;;;9.23;4.23;;;;;;;-1.73;94.16;62725.69;5052172;28;20687;-56
2023/12/04 05:08:09;;;;;;;5.23;3.50;;;;;;;-1.59;92.77;62740.81;5050898;28;20213;-52
2023/12/04 05:10:34;;;;;;;5.77;3.37;;;;;;;-1.60;91.43;62741.66;5052176;28;20209;-52
2023/12/04 05:13:00;;;;;;;6.63;3.70;;;;;;;-1.54;92.45;62746.22;5052767;28;20218;-54
2023/12/04 05:15:25;;;;;;;6.83;3.60;;;;;;;-1.52;93.13;62748.38;5052019;28;20204;-54
2023/12/04 05:17:51;;;;;;;6.20;3.70;;;;;;;-1.52;92.92;62747.84;5052047;28;20216;-55
2023/12/04 05:20:17;;;;;;;6.33;3.50;;;;;;;-1.51;92.09;62748.91;5052134;28;20200;-54
2023/12/04 05:22:42;;;;;;;5.87;4.20;;;;;;;-1.58;92.44;62741.34;5051671;28;20215;-52
2023/12/04 05:25:08;;;;;;;6.53;3.63;;;;;;;-1.52;92.76;62748.38;5052063;28;20199;-53
2023/12/04 05:27:34;;;;;;;5.37;3.47;;;;;;;-1.61;91.90;62736.16;5050598;28;20223;-54
2023/12/04 05:29:59;;;;;;;6.07;3.33;;;;;;;-1.52;91.98;62742.88;5052005;28;20208;-53
2023/12/04 05:32:25;;;;;;;5.37;3.33;;;;;;;-1.57;92.61;62744.88;5052205;28;20584;-53
2023/12/04 05:34:51;;;;;;;5.77;3.57;;;;;;;-1.51;91.55;62754.38;5052259;28;20213;-52
2023/12/04 05:37:16;;;;;;;6.00;3.77;;;;;;;-1.54;92.29;62745.66;5051950;28;20587;-54
2023/12/04 05:39:42;;;;;;;5.83;3.60;;;;;;;-1.62;91.65;62737.03;5051863;28;20242;-54
2023/12/04 05:42:08;;;;;;;6.53;4.20;;;;;;;-1.70;92.00;62729.44;5051765;28;20228;-53
2023/12/04 05:44:34;;;;;;;6.87;4.37;;;;;;;-1.63;91.69;62735.94;5052171;28;20197;-53
2023/12/04 05:47:00;;;;;;;5.37;4.10;;;;;;;-1.70;92.11;62726.47;5051760;28;20234;-51
2023/12/04 05:49:26;;;;;;;9.50;4.97;;;;;;;-1.67;92.85;62732.16;5052324;28;20272;-54
2023/12/04 05:51:52;;;;;;;8.87;5.37;;;;;;;-1.70;93.86;62728.94;5034076;28;20215;-53
2023/12/04 05:54:18;;;;;;;8.53;4.63;;;;;;;-1.70;94.23;62726.97;5033559;28;20254;-53
2023/12/04 05:56:43;;;;;;;7.27;4.03;;;;;;;-1.83;95.18;62712.94;5051427;28;20709;-54
2023/12/04 05:59:09;;;;;;;6.57;4.20;;;;;;;-1.75;95.07;62721.03;5051814;28;20204;-52
2023/12/04 06:01:35;;;;;;;6.50;4.47;;;;;;;-1.67;95.42;62729.69;5051227;28;20221;-54
2023/12/04 06:04:00;;;;;;;8.80;4.70;;;;;;;-1.60;95.29;62739.19;5051406;28;20277;-53
2023/12/04 06:06:27;;;;;;;8.20;4.80;;;;;;;-1.54;94.59;62745.66;5050961;28;20320;-53
2023/12/04 06:08:53;;;;;;;8.30;5.00;;;;;;;-1.45;93.99;62752.91;5051272;28;20616;-54
2023/12/04 06:11:18;;;;;;;8.40;4.27;;;;;;;-1.55;94.59;62747.03;5051100;28;20733;-55
2023/12/04 06:13:44;;;;;;;6.50;4.33;;;;;;;-1.52;95.24;62747.84;5051188;28;20312;-52
2023/12/04 06:16:10;;;;;;;6.73;3.93;;;;;;;-1.59;95.64;62743.28;5050962;28;20252;-53
2023/12/04 06:18:36;;;;;;;8.53;5.10;;;;;;;-1.48;96.12;62752.16;5051414;28;20259;-53
2023/12/04 06:21:02;;;;;;;7.63;4.33;;;;;;;-1.44;95.64;62756.47;5051015;28;20216;-53
2023/12/04 06:23:28;;;;;;;7.87;5.40;;;;;;;-1.26;95.03;62774.00;5051348;28;20693;-54
2023/12/04 06:25:54;;;;;;;8.50;4.47;;;;;;;-1.31;94.79;62768.03;5051409;28;20614;-52
2023/12/04 06:28:19;;;;;;;8.90;4.67;;;;;;;-1.26;95.33;62773.47;5051313;28;20750;-53
2023/12/04 06:30:45;;;;;;;7.07;4.53;;;;;;;-1.31;95.44;62771.06;5032584;28;20282;-53
2023/12/04 06:33:12;;;;;;;8.90;5.23;;;;;;;-1.26;95.26;62775.94;5050786;28;20326;-52
2023/12/04 06:35:38;;;;;;;6.93;4.70;;;;;;;-1.24;95.47;62778.63;5032887;28;20203;-52
2023/12/04 06:38:07;;;;;;;8.60;4.87;;;;;;;-1.11;94.99;62789.69;5051230;28;20758;-52
2023/12/04 06:40:34;;;;;;;9.43;5.63;;;;;;;-1.20;93.56;62779.94;5050301;28;20200;-54
2023/12/04 06:43:00;;;;;;;10.07;5.60;;;;;;;-1.26;93.62;62775.94;5050851;28;20693;-53
2023/12/04 06:45:27;;;;;;;9.30;5.03;;;;;;;-1.27;93.73;62774.84;5050640;28;20239;-51
2023/12/04 06:47:54;;;;;;;9.00;5.07;;;;;;;-1.32;94.78;62767.53;5050857;28;20339;-57
2023/12/04 06:50:19;;;;;;;8.10;5.17;;;;;;;-1.24;94.78;62778.63;5049405;28;20216;-52
2023/12/04 06:52:45;;;;;;;8.40;5.07;;;;;;;-1.11;94.32;62790.19;5050561;28;20217;-51
2023/12/04 06:55:12;;;;;;;10.30;5.10;;;;;;;-1.12;95.77;62789.13;5050930;28;20733;-52
2023/12/04 06:57:38;;;;;;;11.20;5.73;;;;;;;-1.25;95.55;62777.03;5050488;28;20217;-52
2023/12/04 07:00:06;;;;;;;10.07;5.47;;;;;;;-1.33;97.59;62765.88;5049523;28;20636;-51
2023/12/04 07:02:32;;;;;;;7.07;4.73;;;;;;;-1.20;96.44;62779.94;5050792;28;20218;-54
2023/12/04 07:04:58;;;;;;;9.53;5.43;;;;;;;-1.27;96.28;62774.84;5051088;28;20201;-55
2023/12/04 07:07:23;;;;;;;10.33;5.33;;;;;;;-1.31;95.81;62768.03;5032848;28;20213;-51
2023/12/04 07:09:49;;;;;;;7.57;4.70;;;;;;;-1.35;95.31;62766.72;5050400;28;20205;-54
2023/12/04 07:12:14;;;;;;;6.60;4.30;;;;;;;-1.39;95.89;62762.41;5050623;28;20220;-53
2023/12/04 07:14:40;;;;;;;7.13;4.23;;;;;;;-1.44;96.43;62754.00;5050941;28;20260;-52
2023/12/04 07:17:05;;;;;;;8.73;4.83;;;;;;;-1.43;96.57;62757.53;5050577;28;20212;-53
2023/12/04 07:19:31;;;;;;;9.17;5.33;;;;;;;-1.24;96.13;62778.09;5032733;28;20205;-52
2023/12/04 07:21:57;;;;;;;10.50;5.83;;;;;;;-1.07;95.08;62794.53;5050200;28;20243;-52
2023/12/04 07:24:22;;;;;;;8.30;4.90;;;;;;;-0.98;94.18;62806.75;5050489;28;20212;-53
2023/12/04 07:26:48;;;;;;;11.57;5.77;;;;;;;-1.00;94.49;62804.03;5050572;28;20220;-53
2023/12/04 07:29:14;;;;;;;9.70;5.40;;;;;;;-1.05;94.86;62799.16;5050235;28;20734;-52
2023/12/04 07:31:42;;;;;;;8.60;5.07;;;;;;;-0.94;93.34;62810.53;5050344;28;20706;-57
2023/12/04 07:34:07;;;;;;;7.17;5.10;;;;;;;-1.02;92.33;62802.41;5050233;28;20208;-54
2023/12/04 07:36:33;;;;;;;8.07;5.17;;;;;;;-1.01;91.97;62800.50;5032394;28;20215;-54
2023/12/04 07:38:58;;;;;;;10.13;5.33;;;;;;;-0.97;91.51;62812.22;5050072;28;20204;-55
2023/12/04 07:41:24;;;;;;;9.63;4.53;;;;;;;-1.07;91.48;62796.47;5032284;28;20298;-52
2023/12/04 07:43:51;;;;;;;8.20;5.03;;;;;;;-1.18;92.25;62787.03;5053459;28;20717;-52
2023/12/04 07:46:16;;;;;;;7.50;5.03;;;;;;;-1.01;91.84;62805.97;5053497;28;20287;-53
2023/12/04 07:48:43;;;;;;;11.33;6.50;;;;;;;-1.05;90.72;62798.63;5053566;28;20213;-52
2023/12/04 07:51:10;;;;;;;7.87;5.10;;;;;;;-1.11;87.75;62792.16;5053373;28;20215;-52
2023/12/04 07:53:35;;;;;;;7.43;4.10;;;;;;;-1.16;87.49;62789.22;5053719;28;20599;-54
2023/12/04 07:56:05;;;;;;;7.80;4.27;;;;;;;-1.15;87.98;62787.81;5053677;28;20215;-53
2023/12/04 07:58:31;;;;;;;8.03;5.10;;;;;;;-1.10;86.87;62793.78;5053590;28;20269;-53
2023/12/04 08:00:58;;;;;;;6.83;4.63;;;;;;;-0.88;86.55;62814.53;5053331;28;20220;-53
2023/12/04 08:03:23;;;;;;;8.80;4.10;;;;;;;-0.80;86.36;62825.13;5053436;28;20722;-53
2023/12/04 08:05:52;;;;;;;7.40;4.40;;;;;;;-0.70;86.00;62838.41;5053726;28;20207;-53
2023/12/04 08:08:18;;;;;;;7.23;4.47;;;;;;;-0.41;83.55;62867.84;5035197;28;20601;-54
2023/12/04 08:10:43;;;;;;;7.80;4.87;;;;;;;-0.31;81.82;62878.66;5053190;28;20205;-54
2023/12/04 08:13:09;;;;;;;7.37;3.77;;;;;;;-0.74;81.91;62831.59;5052051;28;20597;-52
2023/12/04 08:15:35;;;;;;;4.90;3.60;;;;;;;-0.69;81.40;62837.56;5053366;28;20666;-53
2023/12/04 08:18:00;;;;;;;8.17;3.97;;;;;;;-0.79;82.24;62826.19;5035171;28;20213;-55
2023/12/04 08:20:26;;;;;;;7.27;4.13;;;;;;;-0.48;83.63;62857.78;5053042;28;20229;-52
2023/12/04 08:22:52;;;;;;;6.37;3.83;;;;;;;-0.22;79.74;62888.41;5052746;28;20219;-53
2023/12/04 08:25:18;;;;;;;5.40;4.17;;;;;;;0.02;80.46;62908.34;5034925;28;20291;-51
2023/12/04 08:27:45;;;;;;;6.57;4.10;;;;;;;0.04;77.86;62915.47;5052758;28;20209;-55
2023/12/04 08:30:10;;;;;;;6.10;4.47;;;;;;;0.10;76.89;62922.50;5051479;28;20198;-55
2023/12/04 08:32:36;;;;;;;8.00;3.80;;;;;;;0.32;75.71;62943.31;5052917;28;20217;-55
2023/12/04 08:35:03;;;;;;;6.90;4.03;;;;;;;0.77;76.22;62994.50;5052929;28;20258;-54
2023/12/04 08:37:29;;;;;;;7.10;3.60;;;;;;;0.73;72.37;62990.16;5052863;28;20216;-51
2023/12/04 08:39:54;;;;;;;5.87;3.40;;;;;;;0.81;72.68;62998.84;5052666;28;20197;-51
2023/12/04 08:42:20;;;;;;;5.47;3.37;;;;;;;0.45;72.77;62959.84;5052388;28;20233;-51
2023/12/04 08:44:47;;;;;;;7.03;4.30;;;;;;;0.54;72.75;62972.06;5052804;28;20230;-54
2023/12/04 08:47:13;;;;;;;5.53;3.43;;;;;;;0.63;73.06;62982.34;5052554;28;20345;-50
2023/12/04 08:49:40;;;;;;;7.27;4.43;;;;;;;0.68;71.74;62984.75;5052476;28;20236;-53
2023/12/04 08:52:07;;;;;;;8.60;3.90;;;;;;;1.38;72.60;63055.09;5052550;28;20264;-53
2023/12/04 08:54:35;;;;;;;9.53;4.70;;;;;;;1.50;69.95;63073.63;5052011;28;20212;-53
2023/12/04 08:57:00;;;;;;;5.97;3.43;;;;;;;0.94;69.68;63012.94;5052589;28;20224;-52
2023/12/04 08:59:26;;;;;;;7.80;4.30;;;;;;;0.89;70.38;63007.50;5052276;28;20205;-52
2023/12/04 09:01:52;;;;;;;7.10;4.07;;;;;;;1.18;69.68;63038.94;5052194;28;20225;-52
2023/12/04 09:04:17;;;;;;;5.80;3.70;;;;;;;1.27;68.19;63045.66;5052210;28;20198;-52
2023/12/04 09:06:43;;;;;;;6.13;3.50;;;;;;;1.53;65.73;63074.41;5052418;28;20206;-53
2023/12/04 09:09:08;;;;;;;6.00;3.73;;;;;;;1.91;66.87;63115.06;5052858;28;20233;-51
2023/12/04 09:11:34;;;;;;;6.40;3.87;;;;;;;2.46;64.64;63179.16;5050762;28;20205;-55
2023/12/04 09:13:59;;;;;;;4.93;3.43;;;;;;;2.20;62.84;63149.00;5050851;28;20300;-54
2023/12/04 09:16:25;;;;;;;6.53;3.60;;;;;;;2.14;62.34;63140.00;5052485;28;20217;-55
2023/12/04 09:18:50;;;;;;;6.97;3.47;;;;;;;1.95;64.28;63121.88;5052529;28;20639;-53
2023/12/04 09:21:16;;;;;;;5.03;3.40;;;;;;;2.68;63.79;63200.00;5051949;28;20219;-53
2023/12/04 09:23:42;;;;;;;5.17;2.97;;;;;;;2.54;62.44;63187.84;5052482;28;20214;-53
2023/12/04 09:26:08;;;;;;;5.20;3.53;;;;;;;2.84;59.78;63217.94;5051846;28;20205;-53
2023/12/04 09:28:35;;;;;;;4.57;3.40;;;;;;;3.02;59.29;63234.44;5052012;28;20241;-52
2023/12/04 09:31:00;;;;;;;5.03;3.77;;;;;;;4.04;59.08;63347.22;5051976;28;20288;-53
2023/12/04 09:33:26;;;;;;;4.93;3.20;;;;;;;4.69;56.88;63414.84;5051882;28;20229;-53
2023/12/04 09:35:52;;;;;;;6.80;4.00;;;;;;;4.72;56.23;63421.19;5051937;28;20203;-55
2023/12/04 09:38:18;;;;;;;4.43;3.57;;;;;;;6.03;53.72;63565.22;5051570;28;20228;-53
2023/12/04 09:40:44;;;;;;;7.17;4.33;;;;;;;5.29;53.78;63482.13;5051649;28;20696;-53
2023/12/04 09:43:09;;;;;;;5.17;4.07;;;;;;;5.42;53.75;63494.31;5052294;28;20244;-53
2023/12/04 09:45:36;;;;;;;6.43;4.13;;;;;;;5.94;50.93;63550.97;5051804;28;20184;-53
2023/12/04 09:48:02;;;;;;;5.77;3.57;;;;;;;5.54;50.06;63506.81;5051897;28;20298;-55
2023/12/04 09:50:27;;;;;;;7.33;4.37;;;;;;;4.91;52.28;63444.34;5051552;28;20215;-53
2023/12/04 09:52:54;;;;;;;4.63;3.43;;;;;;;6.59;50.78;63621.25;5051686;28;20209;-53
2023/12/04 09:55:20;;;;;;;4.97;3.40;;;;;;;7.71;47.13;63739.25;5051624;28;20548;-53
2023/12/04 09:57:46;;;;;;;8.67;5.43;;;;;;;7.11;46.60;63674.34;5050047;28;20227;-53
2023/12/04 10:00:14;;;;;;;5.20;3.40;;;;;;;7.58;46.36;63728.69;5033766;28;20714;-53
2023/12/04 10:02:41;;;;;;;4.30;3.17;;;;;;;8.25;47.05;63801.28;5051704;28;20217;-55
2023/12/04 10:05:10;;;;;;;5.67;3.63;;;;;;;7.12;46.21;63678.50;5050573;28;20304;-54
2023/12/04 10:07:37;;;;;;;4.67;3.63;;;;;;;8.17;45.87;63792.53;5051559;28;20217;-55
2023/12/04 10:10:08;;;;;;;4.87;4.10;;;;;;;8.60;43.27;63838.97;5017467;28;20278;-54
2023/12/04 10:12:35;;;;;;;5.40;3.30;;;;;;;7.73;45.18;63744.50;5051365;28;20220;-54
2023/12/04 10:15:08;;;;;;;6.77;3.50;;;;;;;8.55;45.29;63832.94;5051152;28;20675;-53
2023/12/04 10:17:38;;;;;;;5.00;3.80;;;;;;;8.97;44.20;63881.91;5051250;28;20240;-55
2023/12/04 10:20:17;;;;;;;8.57;4.87;;;;;;;8.77;43.50;63854.47;5051145;28;20207;-54
2023/12/04 10:23:01;;;;;;;8.80;4.80;;;;;;;8.11;43.38;63785.44;5051310;28;20217;-53
2023/12/04 10:25:30;;;;;;;7.10;3.53;;;;;;;8.30;44.22;63809.25;5051185;28;20201;-54
2023/12/04 10:28:09;;;;;;;5.27;4.20;;;;;;;7.31;45.40;63698.69;5051120;28;20309;-52
2023/12/04 10:30:34;;;;;;;5.77;4.03;;;;;;;7.11;44.90;63679.91;5051230;28;20165;-55
2023/12/04 10:33:04;;;;;;;6.20;4.23;;;;;;;7.87;44.98;63759.78;5051025;28;20217;-55
2023/12/04 10:35:32;;;;;;;7.83;3.67;;;;;;;8.54;43.56;63834.38;5050998;28;20689;-53
2023/12/04 10:37:59;;;;;;;3.67;3.20;;;;;;;8.85;43.29;63866.28;5050282;28;20217;-56
2023/12/04 10:40:31;;;;;;;5.00;3.60;;;;;;;9.21;42.37;63903.09;5033068;28;20667;-54
2023/12/04 10:43:17;;;;;;;4.73;3.40;;;;;;;9.63;41.33;63952.97;5032739;28;20254;-54
2023/12/04 10:45:45;;;;;;;6.33;4.03;;;;;;;9.78;40.27;63964.88;5049406;28;20663;-53
2023/12/04 10:48:12;;;;;;;7.50;3.60;;;;;;;9.89;41.18;63976.38;5050886;28;20254;-54
2023/12/04 10:50:40;;;;;;;6.13;3.70;;;;;;;9.59;41.44;63946.63;5048441;28;20200;-52
2023/12/04 10:53:07;;;;;;;5.57;4.03;;;;;;;8.45;42.64;63823.13;5032140;28;20225;-52
2023/12/04 10:55:34;;;;;;;6.03;4.20;;;;;;;9.21;41.46;63903.09;5049419;28;20233;-54
2023/12/04 10:58:14;;;;;;;6.00;4.20;;;;;;;7.17;44.16;63683.94;5050805;28;20748;-54
2023/12/04 11:00:46;;;;;;;5.10;3.83;;;;;;;8.88;42.39;63871.53;5050575;28;20200;-57
2023/12/04 11:03:28;;;;;;;8.93;4.23;;;;;;;8.63;43.25;63841.69;5051139;28;20209;-53
2023/12/04 11:06:00;;;;;;;5.63;4.33;;;;;;;9.09;42.44;63890.00;5050330;28;20284;-54
2023/12/04 11:08:32;;;;;;;4.73;4.03;;;;;;;8.57;42.82;63832.63;5050966;28;20209;-54
2023/12/04 11:11:08;;;;;;;9.23;4.67;;;;;;;8.07;43.16;63781.63;5050330;28;20263;-53
2023/12/04 11:13:37;;;;;;;5.97;4.20;;;;;;;10.51;100.00;64046.75;5049033;28;20212;-53
2023/12/04 11:16:15;;;;;;;4.63;3.80;;;;;;;11.67;93.96;64175.22;5051454;28;20596;-55
2023/12/04 11:18:48;;;;;;;7.47;4.00;;;;;;;12.20;51.44;64232.78;5052962;28;20227;-52
2023/12/04 11:21:13;;;;;;;6.40;4.03;;;;;;;12.36;44.68;64247.78;5054233;28;20244;-54
2023/12/04 11:23:40;;;;;;;7.30;4.83;;;;;;;10.14;42.01;64006.78;5053708;28;20216;-55
2023/12/04 11:26:07;;;;;;;5.27;4.23;;;;;;;10.82;40.32;64077.59;5054195;28;20201;-55
2023/12/04 11:28:33;;;;;;;5.10;4.00;;;;;;;10.87;41.00;64088.13;5053729;28;20366;-55
2023/12/04 11:31:01;;;;;;;5.67;4.20;;;;;;;10.60;40.14;64056.03;5054103;28;20284;-54